Time;durP1;ratioP1;P1;durP2;ratioP2;P2;SDS_P1;SDS_P2;PMS_P1;PMS_P2;Temp;Humidity;BMP_temperature;BMP_pressure;BME280_temperature;BME280_humidity;BME280_pressure;Samples;Min_cycle;Max_cycle;Signal;HPM_P1;HPM_P2
2022/10/19 00:01:55;;;;;;;;;13.67;13.67;;;;;16.92;79.04;102028.59;4962898;28;46263;-81
2022/10/19 00:04:20;;;;;;;;;15.00;15.00;;;;;16.92;79.06;102025.94;4945590;28;45483;-80
2022/10/19 00:06:46;;;;;;;;;15.50;15.00;;;;;16.94;78.91;102028.56;4944619;28;45418;-80
2022/10/19 00:09:15;;;;;;;;;15.50;15.50;;;;;16.93;78.90;102022.38;4944613;28;45366;-80
2022/10/19 00:11:43;;;;;;;;;17.33;16.00;;;;;16.89;78.91;102012.69;4956184;28;45216;-80
2022/10/19 00:14:15;;;;;;;;;16.33;15.67;;;;;16.88;78.88;102010.03;4944618;28;45286;-81
2022/10/19 00:16:42;;;;;;;;;18.00;16.67;;;;;16.92;78.77;102022.38;4927650;28;45546;-81
2022/10/19 00:19:12;;;;;;;;;12.33;12.33;;;;;16.89;78.98;102017.09;4927128;28;45288;-81
2022/10/19 00:21:38;;;;;;;;;13.33;13.00;;;;;16.78;78.79;101998.56;4926051;28;47759;-79
2022/10/19 00:24:04;;;;;;;;;14.00;14.00;;;;;16.83;78.85;102011.84;4960217;28;45354;-81
2022/10/19 00:26:30;;;;;;;;;13.00;12.33;;;;;16.79;79.08;102007.47;4948367;28;45402;-80
2022/10/19 00:28:55;;;;;;;;;16.33;15.33;;;;;16.73;79.13;102000.34;4937355;28;45316;-81
2022/10/19 00:31:21;;;;;;;;;15.25;15.25;;;;;16.77;79.19;102007.47;4947032;28;45227;-81
2022/10/19 00:33:47;;;;;;;;;16.25;15.25;;;;;16.70;79.29;101995.06;4969695;28;45266;-80
2022/10/19 00:36:15;;;;;;;;;10.67;10.67;;;;;16.74;79.30;101997.69;4926456;28;45316;-81
2022/10/19 00:38:41;;;;;;;;;10.33;10.00;;;;;16.71;79.02;101988.88;4942252;28;45507;-81
2022/10/19 00:41:07;;;;;;;;;13.00;12.00;;;;;16.69;79.22;101982.69;4942920;28;45530;-81
2022/10/19 00:43:51;;;;;;;;;13.00;13.00;;;;;16.69;79.11;101988.88;4943667;28;45269;-81
2022/10/19 00:46:16;;;;;;;;;16.67;13.67;;;;;16.63;79.27;101969.44;4942168;28;45354;-81
2022/10/19 00:48:41;;;;;;;;;16.00;16.00;;;;;16.68;79.19;101983.56;4943344;28;45480;-81
2022/10/19 00:51:07;;;;;;;;;14.50;12.00;;;;;16.65;79.44;101973.88;4955711;28;45908;-81
2022/10/19 00:53:34;;;;;;;;;14.00;14.00;;;;;16.62;79.34;101971.19;4942275;28;45872;-81
2022/10/19 00:56:05;;;;;;;;;18.00;14.00;;;;;16.61;79.42;101968.56;4957711;28;45364;-81
2022/10/19 00:58:30;;;;;;;;;14.25;13.75;;;;;16.56;79.52;101965.06;4950354;28;45563;-80
2022/10/19 01:01:00;;;;;;;;;12.50;12.50;;;;;16.58;79.60;101971.28;4958182;28;45716;-80
2022/10/19 01:03:26;;;;;;;;;13.67;11.67;;;;;16.55;79.24;101958.88;4954437;28;45379;-81
2022/10/19 01:05:51;;;;;;;;;7.25;6.75;;;;;16.60;79.42;101972.09;4945537;28;45275;-81
2022/10/19 01:08:17;;;;;;;;;18.75;16.00;;;;;16.54;79.30;101952.69;4965237;28;45308;-80
2022/10/19 01:11:00;;;;;;;;;13.00;13.00;;;;;16.59;79.28;101954.41;4951163;28;45775;-80
2022/10/19 01:13:59;;;;;;;;;15.75;13.00;;;;;16.56;79.26;101959.75;4948803;28;45454;-80
2022/10/19 01:16:44;;;;;;;;;11.33;10.67;;;;;16.50;79.33;101958.91;4941747;28;45272;-80
2022/10/19 01:19:16;;;;;;;;;11.00;10.00;;;;;16.52;79.47;101970.44;4941450;28;45262;-80
2022/10/19 01:21:50;;;;;;;;;11.00;11.00;;;;;16.47;79.78;101972.25;4942755;28;46573;-80
2022/10/19 01:24:23;;;;;;;;;9.33;9.00;;;;;16.50;79.63;101963.34;4942841;28;45327;-80
2022/10/19 01:27:06;;;;;;;;;8.00;8.00;;;;;16.45;79.12;101963.38;4941438;28;45449;-80
2022/10/19 01:29:56;;;;;;;;;9.33;8.67;;;;;16.45;79.57;101968.69;4925254;28;45430;-80
2022/10/19 01:32:49;;;;;;;;;11.67;10.67;;;;;16.45;79.67;101973.16;4951862;28;45769;-81
2022/10/19 01:35:48;;;;;;;;;10.00;9.67;;;;;16.44;80.12;101966.94;4948732;28;45395;-80
2022/10/19 01:38:34;;;;;;;;;8.33;8.33;;;;;16.45;79.74;101954.53;4943916;28;45391;-80
2022/10/19 01:41:27;;;;;;;;;10.33;9.33;;;;;16.44;79.69;101958.06;4924387;28;45411;-80
2022/10/19 01:44:24;;;;;;;;;7.33;6.67;;;;;16.37;79.69;101946.63;4924643;28;47549;-80
2022/10/19 01:46:56;;;;;;;;;9.67;9.67;;;;;16.42;79.66;101957.22;4950443;28;45236;-80
2022/10/19 01:49:40;;;;;;;;;8.00;8.00;;;;;16.39;79.57;101949.28;4944992;28;45251;-80
2022/10/19 01:52:09;;;;;;;;;11.33;9.33;;;;;16.37;79.22;101949.28;4946565;28;45403;-80
2022/10/19 01:54:41;;;;;;;;;8.00;8.00;;;;;16.30;79.81;101932.53;4948973;28;45180;-80
2022/10/19 01:57:10;;;;;;;;;8.00;8.00;;;;;16.25;79.58;101931.69;4941559;28;45299;-81
2022/10/19 01:59:37;;;;;;;;;7.67;7.67;;;;;16.25;79.39;101931.69;4961876;28;45362;-80
2022/10/19 02:02:04;;;;;;;;;8.00;8.00;;;;;16.28;79.49;101923.66;4930323;28;45500;-80
2022/10/19 02:04:31;;;;;;;;;6.33;6.33;;;;;16.22;79.67;101913.06;4953979;28;45474;-80
2022/10/19 02:06:57;;;;;;;;;8.00;8.00;;;;;16.26;79.91;101916.59;4924215;28;45834;-81
2022/10/19 02:09:32;;;;;;;;;9.67;6.33;;;;;16.23;79.66;101906.88;4942336;28;45236;-80
2022/10/19 02:12:02;;;;;;;;;8.67;7.67;;;;;16.13;79.61;101894.56;4923987;28;45265;-80
2022/10/19 02:14:35;;;;;;;;;8.67;8.67;;;;;16.23;79.65;101906.00;4941495;28;45584;-80
2022/10/19 02:17:07;;;;;;;;;9.33;8.33;;;;;16.23;79.93;101901.56;4941251;28;45344;-81
2022/10/19 02:19:32;;;;;;;;;12.33;9.00;;;;;16.11;79.71;101885.72;4941698;28;45254;-80
2022/10/19 02:21:58;;;;;;;;;7.00;6.00;;;;;16.18;79.85;101894.53;4941475;28;45313;-80
2022/10/19 02:24:24;;;;;;;;;9.00;8.00;;;;;16.21;79.66;101898.03;4941491;28;45241;-80
2022/10/19 02:26:51;;;;;;;;;9.00;7.00;;;;;16.09;79.49;101875.13;4941183;28;45511;-80
2022/10/19 02:29:16;;;;;;;;;9.00;9.00;;;;;16.13;79.67;101883.94;4924158;28;45383;-80
2022/10/19 02:31:42;;;;;;;;;7.33;6.67;;;;;16.18;79.81;101886.56;4939870;28;45725;-80
2022/10/19 02:34:09;;;;;;;;;11.00;9.33;;;;;16.13;79.83;101883.94;4941374;28;45422;-80
2022/10/19 02:36:34;;;;;;;;;11.67;9.00;;;;;16.15;79.83;101886.59;4939792;28;45467;-80
2022/10/19 02:39:00;;;;;;;;;9.00;9.00;;;;;16.16;79.98;101886.56;4941292;28;45354;-80
2022/10/19 02:41:29;;;;;;;;;9.67;9.67;;;;;16.15;80.17;101871.53;4939827;28;45188;-80
2022/10/19 02:44:01;;;;;;;;;9.00;9.00;;;;;16.15;80.08;101875.97;4941194;28;45231;-80
2022/10/19 02:46:47;;;;;;;;;11.00;10.00;;;;;16.12;80.07;101875.97;4924016;28;45671;-80
2022/10/19 02:49:13;;;;;;;;;8.67;8.33;;;;;16.11;79.99;101872.44;4940431;28;45307;-81
2022/10/19 02:51:54;;;;;;;;;8.67;8.67;;;;;16.02;79.88;101852.16;4924322;28;45453;-79
2022/10/19 02:54:20;;;;;;;;;8.00;7.67;;;;;16.10;80.20;101860.94;4924078;28;46365;-80
2022/10/19 02:56:45;;;;;;;;;6.00;6.00;;;;;16.10;79.93;101858.28;4941296;28;45301;-80
2022/10/19 02:59:11;;;;;;;;;8.00;6.67;;;;;16.16;80.13;101864.44;4948759;28;45470;-80
2022/10/19 03:01:36;;;;;;;;;7.00;7.00;;;;;16.13;80.10;101862.69;4941776;28;45509;-80
2022/10/19 03:04:02;;;;;;;;;8.00;7.33;;;;;16.17;80.25;101858.22;4936942;28;46279;-80
2022/10/19 03:06:27;;;;;;;;;9.00;9.00;;;;;16.18;79.92;101862.66;4941615;28;45198;-80
2022/10/19 03:08:53;;;;;;;;;7.00;7.00;;;;;16.17;79.62;101851.16;4941801;28;45963;-80
2022/10/19 03:11:18;;;;;;;;;9.00;9.00;;;;;16.18;79.93;101850.25;4924085;28;45489;-80
2022/10/19 03:13:43;;;;;;;;;5.00;5.00;;;;;16.20;80.14;101843.16;4924239;28;48162;-80
2022/10/19 03:16:10;;;;;;;;;9.00;8.00;;;;;16.14;79.82;101827.22;4927556;28;45387;-80
2022/10/19 03:18:36;;;;;;;;;7.67;7.33;;;;;16.18;80.02;101831.63;4944843;28;45397;-80
2022/10/19 03:21:04;;;;;;;;;7.00;7.00;;;;;16.19;79.83;101838.69;4944602;28;45519;-80
2022/10/19 03:23:30;;;;;;;;;10.33;8.33;;;;;16.08;79.75;101820.22;4944638;28;46202;-80
2022/10/19 03:25:55;;;;;;;;;8.00;7.00;;;;;16.09;79.66;101829.06;4944664;28;45329;-80
2022/10/19 03:28:20;;;;;;;;;8.33;8.33;;;;;16.12;79.68;101828.13;4944731;28;45276;-80
2022/10/19 03:30:46;;;;;;;;;7.67;7.67;;;;;16.12;79.62;101822.81;4954458;28;45251;-80
2022/10/19 03:33:11;;;;;;;;;10.00;10.00;;;;;16.10;80.09;101829.06;4929816;28;46980;-80
2022/10/19 03:35:36;;;;;;;;;9.00;7.67;;;;;16.10;80.02;101833.50;4944614;28;45340;-80
2022/10/19 03:38:02;;;;;;;;;9.50;9.50;;;;;15.99;79.80;101807.03;4943032;28;45722;-80
2022/10/19 03:40:27;;;;;;;;;8.67;8.67;;;;;16.04;79.86;101818.50;4944258;28;45242;-80
2022/10/19 03:42:56;;;;;;;;;9.00;9.00;;;;;16.02;80.03;101801.69;4942581;28;46831;-80
2022/10/19 03:45:22;;;;;;;;;10.25;7.75;;;;;16.03;80.09;101808.75;4944194;28;45398;-80
2022/10/19 03:47:51;;;;;;;;;9.33;8.67;;;;;16.01;80.02;101804.34;4926925;28;45272;-80
2022/10/19 03:50:16;;;;;;;;;8.33;6.33;;;;;15.97;80.27;101808.81;4945187;28;45172;-81
2022/10/19 03:52:43;;;;;;;;;6.00;6.00;;;;;15.87;80.25;101796.50;4945154;28;46655;-80
2022/10/19 03:55:09;;;;;;;;;8.00;7.67;;;;;15.97;80.14;101807.94;4927760;28;45282;-80
2022/10/19 03:57:35;;;;;;;;;6.00;6.00;;;;;15.95;80.26;101796.44;4945374;28;45236;-80
2022/10/19 04:00:01;;;;;;;;;9.33;9.33;;;;;15.93;80.19;101795.56;4960738;28;44759;-81
2022/10/19 04:02:26;;;;;;;;;8.00;7.67;;;;;15.82;80.52;101788.59;4938972;28;47036;-79
2022/10/19 04:04:51;;;;;;;;;10.33;8.33;;;;;15.83;80.54;101792.13;4958014;28;45335;-80
2022/10/19 04:07:17;;;;;;;;;10.67;8.33;;;;;15.80;80.45;101792.16;4932904;28;45352;-80
2022/10/19 04:09:42;;;;;;;;;7.33;7.33;;;;;15.83;80.65;101803.63;4947358;28;45520;-80
2022/10/19 04:12:07;;;;;;;;;9.67;9.67;;;;;15.88;80.54;101816.88;4956540;28;45609;-80
2022/10/19 04:14:33;;;;;;;;;8.67;7.67;;;;;15.78;80.68;101797.47;4944125;28;45366;-80
2022/10/19 04:17:00;;;;;;;;;8.67;8.33;;;;;15.80;80.86;101798.34;4943945;28;45322;-80
2022/10/19 04:19:25;;;;;;;;;6.67;5.67;;;;;15.88;80.94;101815.09;4944035;28;45530;-80
2022/10/19 04:21:51;;;;;;;;;11.00;10.00;;;;;15.84;80.96;101809.81;4943810;28;45181;-80
2022/10/19 04:24:17;;;;;;;;;12.33;10.00;;;;;15.88;80.57;101819.53;4926537;28;45835;-80
2022/10/19 04:26:46;;;;;;;;;10.00;9.00;;;;;15.83;81.04;101813.38;4925612;28;45282;-80
2022/10/19 04:29:12;;;;;;;;;8.67;8.67;;;;;15.78;80.85;101797.47;4953702;28;45517;-80
2022/10/19 04:31:38;;;;;;;;;10.00;9.00;;;;;15.79;80.91;101803.66;4948792;28;47234;-81
2022/10/19 04:34:05;;;;;;;;;9.67;8.67;;;;;15.85;81.24;101819.53;4944457;28;45827;-80
2022/10/19 04:36:30;;;;;;;;;11.00;10.00;;;;;15.86;81.11;101821.31;4964319;28;45428;-79
2022/10/19 04:38:55;;;;;;;;;8.67;8.00;;;;;15.76;81.31;101788.63;4951540;28;45228;-80
2022/10/19 04:41:22;;;;;;;;;12.33;11.67;;;;;15.83;80.87;101805.41;4956520;28;45533;-80
2022/10/19 04:43:54;;;;;;;;;9.33;8.33;;;;;15.86;80.96;101808.03;4944223;28;45320;-80
2022/10/19 04:46:19;;;;;;;;;12.00;8.00;;;;;15.86;81.11;101806.25;4946012;28;45501;-80
2022/10/19 04:48:47;;;;;;;;;8.00;8.00;;;;;15.84;80.92;101805.38;4934256;28;45451;-80
2022/10/19 04:51:13;;;;;;;;;11.00;11.00;;;;;15.80;81.34;101793.03;4945179;28;47732;-80
2022/10/19 04:53:40;;;;;;;;;9.33;7.00;;;;;15.81;81.05;101785.94;4941829;28;45644;-80
2022/10/19 04:56:07;;;;;;;;;9.00;9.00;;;;;15.65;81.09;101750.63;4948641;28;45225;-80
2022/10/19 04:58:33;;;;;;;;;9.00;9.00;;;;;15.80;81.27;101778.88;4945231;28;45423;-79
2022/10/19 05:01:05;;;;;;;;;13.00;12.00;;;;;15.77;80.88;101774.47;4944950;28;45561;-80
2022/10/19 05:03:30;;;;;;;;;10.67;9.67;;;;;15.70;81.17;101750.63;4955003;28;45529;-80
2022/10/19 05:05:58;;;;;;;;;9.00;9.00;;;;;15.76;81.36;101753.22;4942337;28;45496;-80
2022/10/19 05:08:23;;;;;;;;;10.67;10.67;;;;;15.67;81.45;101738.25;4956144;28;45287;-80
2022/10/19 05:10:49;;;;;;;;;12.75;11.50;;;;;15.72;81.37;101748.84;4930621;28;47197;-80
2022/10/19 05:13:14;;;;;;;;;11.00;11.00;;;;;15.68;81.28;101747.06;4955989;28;45449;-80
2022/10/19 05:15:39;;;;;;;;;12.00;11.67;;;;;15.70;81.26;101746.19;4946031;28;45884;-80
2022/10/19 05:18:05;;;;;;;;;9.50;9.50;;;;;15.68;81.53;101747.94;4943916;28;45247;-79
2022/10/19 05:20:30;;;;;;;;;11.67;10.33;;;;;15.69;81.16;101755.06;4925276;28;46096;-81
2022/10/19 05:22:56;;;;;;;;;9.00;9.00;;;;;15.54;81.44;101733.94;4941078;28;45245;-80
2022/10/19 05:25:21;;;;;;;;;13.00;12.00;;;;;15.70;81.59;101766.56;4941747;28;45181;-79
2022/10/19 05:27:51;;;;;;;;;8.75;8.00;;;;;15.58;81.66;101744.50;4926453;28;45306;-80
2022/10/19 05:30:18;;;;;;;;;9.67;9.67;;;;;15.70;81.50;101750.63;4942015;28;47841;-81
2022/10/19 05:32:43;;;;;;;;;12.67;11.00;;;;;15.62;81.42;101732.97;4947182;28;45459;-80
2022/10/19 05:35:09;;;;;;;;;10.33;9.67;;;;;15.60;81.44;101724.13;4947336;28;45404;-81
2022/10/19 05:37:34;;;;;;;;;11.33;11.33;;;;;15.69;81.49;101744.47;4926547;28;45478;-81
2022/10/19 05:39:59;;;;;;;;;9.00;9.00;;;;;15.63;81.44;101737.34;4948620;28;46213;-81
2022/10/19 05:42:25;;;;;;;;;10.33;8.33;;;;;15.59;81.32;101724.16;4949226;28;45505;-80
2022/10/19 05:44:50;;;;;;;;;13.00;12.00;;;;;15.64;81.69;101727.66;4941682;28;45434;-80
2022/10/19 05:47:16;;;;;;;;;11.33;10.33;;;;;15.64;81.56;101723.22;4924598;28;45210;-80
2022/10/19 05:49:41;;;;;;;;;8.67;8.67;;;;;15.64;81.75;101723.22;4940328;28;47450;-80
2022/10/19 05:52:06;;;;;;;;;11.33;10.00;;;;;15.64;81.68;101727.66;4924310;28;45274;-80
2022/10/19 05:54:32;;;;;;;;;12.00;11.67;;;;;15.58;81.91;101711.75;4940694;28;45972;-81
2022/10/19 05:56:57;;;;;;;;;12.00;11.50;;;;;15.53;81.56;101705.59;4950443;28;45895;-81
2022/10/19 05:59:23;;;;;;;;;13.25;12.75;;;;;15.50;81.70;101693.25;4931885;28;46823;-82
2022/10/19 06:01:48;;;;;;;;;11.67;11.67;;;;;15.48;81.58;101695.06;4932454;28;45265;-82
2022/10/19 06:04:14;;;;;;;;;13.25;11.25;;;;;15.60;81.79;101723.25;4954765;28;45309;-82
2022/10/19 06:06:41;;;;;;;;;11.75;11.50;;;;;15.57;81.39;101712.66;4940253;28;45510;-81
2022/10/19 06:09:07;;;;;;;;;11.75;11.75;;;;;15.53;81.43;101714.47;4928036;28;47137;-83
2022/10/19 06:11:35;;;;;;;;;11.00;11.00;;;;;15.51;81.47;101710.06;4943180;28;45319;-83
2022/10/19 06:14:03;;;;;;;;;13.00;13.00;;;;;15.61;81.54;101733.88;4943515;28;45509;-82
2022/10/19 06:16:30;;;;;;;;;12.67;11.67;;;;;15.56;81.61;101726.84;4948697;28;45247;-82
2022/10/19 06:18:57;;;;;;;;;32.25;26.25;;;;;15.54;81.75;101713.56;4941701;28;45523;-85
2022/10/19 06:21:27;;;;;;;;;17.00;16.00;;;;;15.62;81.54;101721.47;4940234;28;45386;-83
2022/10/19 06:23:55;;;;;;;;;14.50;13.00;;;;;15.57;81.26;101708.22;4942285;28;45256;-82
2022/10/19 06:26:21;;;;;;;;;15.50;12.75;;;;;15.66;81.86;101724.09;4939870;28;45475;-82
2022/10/19 06:28:48;;;;;;;;;19.00;19.00;;;;;15.64;81.51;101714.38;4941323;28;46270;-83
2022/10/19 06:31:14;;;;;;;;;20.00;18.75;;;;;15.71;81.48;101724.06;4941120;28;45324;-86
2022/10/19 06:33:40;;;;;;;;;16.50;15.25;;;;;15.60;81.55;101708.19;4945581;28;45551;-83
2022/10/19 06:36:13;;;;;;;;;16.50;16.25;;;;;15.75;81.42;101723.16;4961634;28;45462;-85
2022/10/19 06:38:39;;;;;;;;;13.25;12.00;;;;;15.76;81.14;101724.91;4941690;28;46721;-87
2022/10/19 06:41:05;;;;;;;;;15.50;12.25;;;;;15.64;81.19;101701.97;4944303;28;45324;-87
2022/10/19 06:43:31;;;;;;;;;13.33;12.33;;;;;15.69;81.40;101698.41;4943112;28;45339;-84
2022/10/19 06:45:56;;;;;;;;;17.25;16.00;;;;;15.72;81.23;101709.03;4952707;28;45333;-84
2022/10/19 06:48:22;;;;;;;;;17.00;15.00;;;;;15.78;81.34;101719.59;4940253;28;47113;-83
2022/10/19 06:51:08;;;;;;;;;17.25;14.75;;;;;15.79;81.57;101708.06;4930145;28;45362;-81
2022/10/19 06:53:34;;;;;;;;;21.25;15.75;;;;;15.65;81.28;101681.63;4937861;28;45306;-85
2022/10/19 06:56:02;;;;;;;;;13.75;12.00;;;;;15.81;81.18;101709.81;4958663;28;45241;-85
2022/10/19 06:58:28;;;;;;;;;16.50;16.00;;;;;15.68;81.43;101697.50;4967869;28;45443;-83
2022/10/19 07:00:56;;;;;;;;;18.00;16.00;;;;;15.74;81.52;101702.78;4949549;28;45448;-84
2022/10/19 07:03:22;;;;;;;;;13.00;12.00;;;;;15.74;81.25;101694.81;4952436;28;45427;-83
2022/10/19 07:06:02;;;;;;;;;15.00;13.00;;;;;15.85;81.36;101700.94;4951049;28;45483;-83
2022/10/19 07:08:30;;;;;;;;;14.00;13.75;;;;;15.90;81.27;101706.16;4963040;28;46511;-85
2022/10/19 07:10:59;;;;;;;;;21.00;18.50;;;;;15.99;81.27;101710.53;4974809;28;45260;-87
2022/10/19 07:13:26;;;;;;;;;15.67;13.00;;;;;15.95;81.17;101690.19;4941937;28;45166;-83
2022/10/19 07:15:59;;;;;;;;;14.00;14.00;;;;;16.08;81.24;101705.09;4943841;28;45557;-84
2022/10/19 07:18:25;;;;;;;;;18.25;17.25;;;;;16.06;81.15;101683.88;4930114;28;47104;-85
2022/10/19 07:21:09;;;;;;;;;14.75;13.75;;;;;16.15;81.03;101690.00;5149260;27;45433;-83
2022/10/19 07:23:53;;;;;;;;;15.00;15.00;;;;;16.25;81.09;101688.97;5097150;27;46234;-87
2022/10/19 07:29:59;;;;;;;;;14.00;13.00;;;;;16.38;81.07;101681.72;5080483;27;45321;-83
2022/10/19 07:32:24;;;;;;;;;17.67;14.67;;;;;16.32;80.75;101667.59;5097300;27;46671;-85
2022/10/19 07:34:50;;;;;;;;;16.25;14.25;;;;;16.50;80.54;101689.56;5094815;27;45524;-80
2022/10/19 07:37:15;;;;;;;;;10.25;9.00;;;;;16.49;80.67;101678.03;5095240;27;45500;-81
2022/10/19 07:39:40;;;;;;;;;16.67;15.33;;;;;16.60;80.53;101695.59;5096626;27;45350;-81
2022/10/19 07:42:06;;;;;;;;;16.50;16.50;;;;;16.64;80.48;101692.03;5097154;27;45406;-81
2022/10/19 07:44:31;;;;;;;;;17.75;15.50;;;;;16.71;80.43;101691.91;5097995;27;45334;-80
2022/10/19 07:46:57;;;;;;;;;15.25;14.75;;;;;16.81;80.08;101683.81;5109069;27;45478;-81
2022/10/19 07:49:22;;;;;;;;;16.00;15.00;;;;;16.94;79.94;101696.03;5097268;27;45368;-82
2022/10/19 07:51:52;;;;;;;;;15.00;15.00;;;;;16.87;79.96;101667.81;5096322;27;45859;-82
2022/10/19 07:54:18;;;;;;;;;17.50;15.50;;;;;17.03;79.59;101682.63;5094922;27;45784;-83
2022/10/19 07:56:46;;;;;;;;;21.50;21.25;;;;;17.10;79.43;101686.06;5096711;27;45259;-81
2022/10/19 07:59:13;;;;;;;;;22.25;20.00;;;;;17.15;79.41;101682.41;5096555;27;45302;-81
2022/10/19 08:01:43;;;;;;;;;20.25;18.50;;;;;17.19;79.28;101684.13;5094860;27;46239;-80
2022/10/19 08:04:09;;;;;;;;;17.75;17.00;;;;;17.28;79.04;101685.75;5096663;27;45439;-81
2022/10/19 08:06:36;;;;;;;;;17.25;17.25;;;;;17.34;78.63;101672.34;5097165;27;45510;-80
2022/10/19 08:09:02;;;;;;;;;20.25;18.25;;;;;17.41;78.63;101676.66;5097546;27;45424;-80
2022/10/19 08:11:30;;;;;;;;;16.75;14.00;;;;;17.56;78.37;101687.94;5097526;27;45516;-79
2022/10/19 08:13:58;;;;;;;;;15.00;15.00;;;;;17.65;78.35;101695.78;5091988;27;45271;-80
2022/10/19 08:16:32;;;;;;;;;20.33;19.00;;;;;17.78;78.08;101694.66;5088113;27;45447;-80
2022/10/19 08:18:59;;;;;;;;;19.50;18.75;;;;;17.81;77.57;101681.31;5094978;27;45377;-80
2022/10/19 08:21:26;;;;;;;;;19.75;18.00;;;;;17.94;77.48;101687.28;5096359;27;46356;-80
2022/10/19 08:23:52;;;;;;;;;19.00;18.33;;;;;18.11;77.43;101683.41;5095741;27;45786;-80
2022/10/19 08:26:18;;;;;;;;;17.00;15.25;;;;;18.21;76.89;101685.00;5096569;27;45260;-81
2022/10/19 08:28:44;;;;;;;;;18.33;18.00;;;;;18.27;77.00;101677.75;5096202;27;45809;-79
2022/10/19 08:31:11;;;;;;;;;19.00;18.00;;;;;18.40;76.31;101675.69;5089460;27;45388;-80
2022/10/19 08:33:37;;;;;;;;;18.00;16.67;;;;;18.47;76.50;101671.09;5083612;28;45257;-82
2022/10/19 08:36:07;;;;;;;;;16.50;15.25;;;;;18.52;75.99;101655.88;5081951;27;45769;-82
2022/10/19 08:38:34;;;;;;;;;21.67;17.33;;;;;18.61;76.05;101670.81;5084909;27;44986;-81
2022/10/19 08:41:46;;;;;;;;;16.00;16.00;;;;;18.64;75.72;101668.94;5082159;27;46104;-84
2022/10/19 08:44:49;;;;;;;;;17.50;16.25;;;;;18.70;75.34;101666.13;5065196;27;45550;-85
2022/10/19 08:47:36;;;;;;;;;16.67;15.33;;;;;18.73;75.22;101665.19;5092725;27;45420;-84
2022/10/19 08:50:13;;;;;;;;;19.50;18.50;;;;;18.70;74.51;101652.81;5077555;27;44887;-84
2022/10/19 08:52:40;;;;;;;;;16.00;15.33;;;;;18.64;74.72;101646.75;5091357;27;47770;-83
2022/10/19 08:55:12;;;;;;;;;18.75;16.50;;;;;18.61;74.31;101647.69;5083753;28;45193;-84
2022/10/19 08:57:56;;;;;;;;;18.00;17.50;;;;;18.68;74.30;101656.41;5101751;27;44764;-83
2022/10/19 09:00:50;;;;;;;;;12.25;12.25;;;;;18.70;74.45;101662.59;5084450;28;45488;-82
2022/10/19 09:03:22;;;;;;;;;18.67;15.00;;;;;18.71;74.27;101665.25;5073685;28;46306;-84
2022/10/19 09:05:52;;;;;;;;;14.25;12.75;;;;;18.63;74.13;101636.97;5084611;27;45544;-82
2022/10/19 09:08:19;;;;;;;;;15.00;14.67;;;;;18.71;73.98;101656.34;5089109;27;45298;-83
2022/10/19 09:10:49;;;;;;;;;14.00;14.00;;;;;18.75;74.40;101655.41;5085769;27;45464;-82
2022/10/19 09:13:33;;;;;;;;;15.67;15.67;;;;;18.76;74.03;101650.94;5084238;28;47285;-83
2022/10/19 09:16:00;;;;;;;;;17.00;16.00;;;;;18.76;73.85;101641.13;5086816;27;45600;-83
2022/10/19 09:18:28;;;;;;;;;14.33;13.33;;;;;18.86;74.11;101644.47;5082075;28;44925;-83
2022/10/19 09:21:03;;;;;;;;;17.50;16.00;;;;;18.83;74.12;101634.75;5080714;27;45646;-84
2022/10/19 09:23:34;;;;;;;;;17.00;14.67;;;;;18.83;74.25;101632.09;5099839;27;47118;-83
2022/10/19 09:25:59;;;;;;;;;17.00;12.67;;;;;18.85;73.92;101624.06;5082325;28;45500;-83
2022/10/19 09:28:51;;;;;;;;;14.00;13.00;;;;;18.97;73.87;101622.88;5082146;27;45385;-83
2022/10/19 09:31:44;;;;;;;;;21.67;16.00;;;;;18.96;73.67;101608.66;5083053;27;45212;-83
2022/10/19 09:34:13;;;;;;;;;17.00;14.33;;;;;19.09;73.63;101627.91;5095509;27;46939;-85
2022/10/19 09:36:48;;;;;;;;;18.00;15.00;;;;;19.07;73.45;101609.25;5079496;28;45261;-85
2022/10/19 09:39:13;;;;;;;;;15.00;14.00;;;;;19.21;73.48;101619.59;5076933;28;45492;-84
2022/10/19 09:42:35;;;;;;;;;13.33;11.33;;;;;19.26;73.12;101611.47;5079353;28;45429;-84
2022/10/19 09:45:15;;;;;;;;;15.00;15.00;;;;;19.51;72.41;101631.28;5056082;28;47416;-84
2022/10/19 09:47:46;;;;;;;;;13.00;12.33;;;;;19.52;72.63;101611.66;5081918;27;45429;-83
2022/10/19 09:50:16;;;;;;;;;11.33;11.33;;;;;19.72;72.24;101627.16;5081408;27;45259;-84
2022/10/19 09:53:06;;;;;;;;;14.67;12.67;;;;;19.81;71.96;101623.38;5080255;27;45441;-83
2022/10/19 09:55:38;;;;;;;;;9.67;9.67;;;;;20.01;71.38;101623.66;5075940;27;45456;-83
2022/10/19 09:58:12;;;;;;;;;16.33;12.33;;;;;20.10;71.24;101616.28;5080773;28;45492;-83
2022/10/19 10:00:49;;;;;;;;;15.00;12.67;;;;;20.15;70.76;101607.22;5076760;27;45248;-83
2022/10/19 10:03:24;;;;;;;;;14.33;13.33;;;;;20.26;70.68;101607.78;5069342;28;45518;-84
2022/10/19 10:05:50;;;;;;;;;11.67;10.67;;;;;20.36;70.19;101604.81;5092834;27;47543;-84
2022/10/19 10:08:22;;;;;;;;;12.67;12.67;;;;;20.40;69.95;101591.31;5079520;28;45241;-84
2022/10/19 10:11:03;;;;;;;;;8.00;8.00;;;;;20.56;69.65;101591.75;5079721;27;45550;-84
2022/10/19 10:13:29;;;;;;;;;9.33;9.33;;;;;20.63;69.37;101579.03;5079332;28;45560;-84
2022/10/19 10:15:59;;;;;;;;;10.67;10.67;;;;;20.73;69.01;101582.31;5079360;27;46834;-84
2022/10/19 10:18:26;;;;;;;;;9.00;9.00;;;;;20.87;69.14;101593.41;5079922;28;45500;-84
2022/10/19 10:20:57;;;;;;;;;10.33;10.00;;;;;21.01;68.62;101591.19;5079157;27;45268;-84
2022/10/19 10:23:25;;;;;;;;;11.33;11.00;;;;;21.08;68.26;101581.13;5080604;28;45361;-84
2022/10/19 10:25:54;;;;;;;;;11.33;11.33;;;;;21.26;67.98;101588.53;5080028;27;45408;-88
2022/10/19 10:28:24;;;;;;;;;6.67;6.33;;;;;21.40;67.25;101585.38;5081995;27;45488;-86
2022/10/19 10:30:59;;;;;;;;;10.00;10.00;;;;;21.54;67.12;101575.06;5080647;27;45444;-86
2022/10/19 10:33:27;;;;;;;;;11.00;11.00;;;;;21.76;66.54;101579.66;5079109;28;45767;-84
2022/10/19 10:36:04;;;;;;;;;6.00;6.00;;;;;21.88;66.36;101556.84;5079835;28;48237;-90
2022/10/19 10:38:38;;;;;;;;;9.33;9.00;;;;;22.07;65.66;101552.53;5080878;27;45369;-86
2022/10/19 10:41:27;;;;;;;;;11.33;11.00;;;;;22.26;65.06;101555.38;5079710;28;45402;-87
2022/10/19 10:44:02;;;;;;;;;12.33;10.00;;;;;22.30;64.40;101551.66;5096627;27;45309;-91
2022/10/19 10:46:55;;;;;;;;;9.67;9.33;;;;;22.52;64.55;101550.81;5092902;27;47200;-86
2022/10/19 10:49:47;;;;;;;;;;;;;;;;;;;;;
2022/10/19 10:52:17;;;;;;;;;11.00;9.00;;;;;22.79;63.69;101540.72;5078635;28;68454;-86
2022/10/19 10:55:17;;;;;;;;;11.00;11.00;;;;;23.01;62.92;101527.28;5081252;27;45621;-86
2022/10/19 10:57:50;;;;;;;;;7.00;7.00;;;;;23.36;62.45;101522.19;5079639;27;47938;-86
2022/10/19 11:00:22;;;;;;;;;9.00;9.00;;;;;24.50;62.22;101533.94;5095402;27;45255;-85
2022/10/19 11:02:59;;;;;;;;;10.00;9.33;;;;;25.92;60.43;101522.94;5066055;28;45213;-85
2022/10/19 11:05:32;;;;;;;;;9.67;9.67;;;;;27.27;57.99;101523.19;5082768;27;45238;-87
2022/10/19 11:08:44;;;;;;;;;9.33;9.00;;;;;28.54;55.61;101506.94;5081041;28;48346;-86
2022/10/19 11:11:29;;;;;;;;;10.33;9.33;;;;;29.31;53.00;101520.66;5055249;28;45713;-86
2022/10/19 11:13:57;;;;;;;;;7.00;6.67;;;;;29.71;52.08;101506.16;5083123;28;45485;-86
2022/10/19 11:16:31;;;;;;;;;7.33;7.33;;;;;29.82;49.73;101507.09;5098191;27;45502;-86
2022/10/19 11:19:11;;;;;;;;;11.00;9.00;;;;;30.02;49.25;101502.03;5096724;27;47144;-89
2022/10/19 11:21:43;;;;;;;;;8.67;8.33;;;;;30.58;48.46;101491.53;5079556;28;45271;-85
2022/10/19 11:24:34;;;;;;;;;8.00;8.00;;;;;32.03;46.68;101475.56;5078968;28;45232;-81
2022/10/19 11:27:26;;;;;;;;;8.67;8.67;;;;;33.48;44.38;101473.09;5079631;27;45730;-85
2022/10/19 11:30:09;;;;;;;;;6.67;6.67;;;;;34.68;41.84;101456.72;5081343;28;45718;-90
2022/10/19 11:33:14;;;;;;;;;6.67;6.67;;;;;35.96;39.69;101453.41;5081845;28;45711;-91
2022/10/19 11:35:52;;;;;;;;;6.33;6.33;;;;;37.19;36.89;101436.19;5070097;28;45298;-89
2022/10/19 11:38:30;;;;;;;;;7.00;6.00;;;;;38.10;35.79;101448.44;5082402;28;45513;-86